Time;durP1;ratioP1;P1;durP2;ratioP2;P2;SDS_P1;SDS_P2;PMS_P1;PMS_P2;Temp;Humidity;BMP_temperature;BMP_pressure;BME280_temperature;BME280_humidity;BME280_pressure;Samples;Min_cycle;Max_cycle;Signal;HPM_P1;HPM_P2
2021/07/07 00:00:22;;;;;;;4.45;0.70;;;13.80;99.90;;;13.09;86.49;97437.88;5045647;28;20072;-62
2021/07/07 00:03:09;;;;;;;4.75;0.50;;;13.80;99.90;;;12.96;87.16;97451.59;5051381;28;20041;-62
2021/07/07 00:05:57;;;;;;;5.53;0.73;;;13.80;99.90;;;12.90;88.09;97451.91;5052099;28;20057;-62
2021/07/07 00:08:45;;;;;;;3.88;1.15;;;13.80;99.90;;;13.00;87.51;97449.66;5053251;28;20381;-63
2021/07/07 00:11:32;;;;;;;2.10;0.50;;;13.80;99.90;;;13.00;87.37;97431.41;5052161;28;20126;-64
2021/07/07 00:14:19;;;;;;;4.13;0.50;;;13.80;99.90;;;12.93;88.20;97435.25;5051248;28;20412;-64
2021/07/07 00:17:07;;;;;;;6.72;0.60;;;13.80;99.90;;;13.02;87.57;97442.56;5051831;28;20044;-64
2021/07/07 00:19:54;;;;;;;4.95;0.80;;;13.80;99.90;;;13.03;87.47;97438.22;5050356;28;20033;-64
2021/07/07 00:22:42;;;;;;;1.88;0.40;;;13.80;99.90;;;13.03;87.80;97446.88;5061244;28;20045;-65
2021/07/07 00:25:29;;;;;;;1.48;0.45;;;13.90;99.90;;;13.05;87.83;97449.41;5044779;28;20033;-64
2021/07/07 00:28:17;;;;;;;5.55;0.60;;;13.90;99.90;;;12.97;88.26;97442.81;5042798;28;20412;-64
2021/07/07 00:31:04;;;;;;;2.63;0.50;;;13.90;99.90;;;13.04;87.62;97424.25;5049656;28;20033;-64
2021/07/07 00:33:52;;;;;;;3.10;0.50;;;13.80;99.90;;;12.94;88.11;97437.78;5048520;28;20103;-64
2021/07/07 00:36:39;;;;;;;2.05;0.43;;;13.80;99.90;;;12.95;88.37;97431.69;5050200;28;20090;-64
2021/07/07 00:39:26;;;;;;;1.42;0.52;;;13.70;99.90;;;12.88;88.60;97437.28;5049107;28;20670;-64
2021/07/07 00:42:14;;;;;;;3.22;0.50;;;13.70;99.90;;;12.88;89.12;97435.50;5048686;28;20041;-64
2021/07/07 00:45:01;;;;;;;4.75;0.80;;;13.70;99.90;;;12.74;89.37;97438.03;5053712;28;20409;-64
2021/07/07 00:47:49;;;;;;;3.42;0.75;;;13.60;99.90;;;12.82;89.47;97429.78;5030715;28;20072;-64
2021/07/07 00:50:37;;;;;;;2.20;0.60;;;13.70;99.90;;;12.75;89.56;97429.31;5049101;28;20052;-64
2021/07/07 00:53:26;;;;;;;2.00;0.50;;;13.60;99.90;;;12.76;89.75;97428.38;5049309;28;20128;-64
2021/07/07 00:56:13;;;;;;;5.60;0.63;;;13.50;99.90;;;12.65;90.39;97441.97;5049111;28;20049;-64
2021/07/07 00:59:03;;;;;;;3.72;0.70;;;13.50;99.90;;;12.72;90.24;97445.91;5050891;28;20037;-64
2021/07/07 01:01:53;;;;;;;1.55;0.50;;;13.50;99.90;;;12.79;90.21;97437.78;5055722;28;20045;-64
2021/07/07 01:04:41;;;;;;;3.28;0.60;;;13.50;99.90;;;12.79;90.04;97453.41;5060853;28;20130;-64
2021/07/07 01:07:28;;;;;;;2.80;0.65;;;13.50;99.90;;;12.63;91.03;97469.84;5049067;28;20064;-64
2021/07/07 01:10:17;;;;;;;2.85;0.75;;;13.50;99.90;;;12.68;90.87;97473.06;5049874;28;20041;-64
2021/07/07 01:13:04;;;;;;;2.67;0.60;;;13.50;99.90;;;12.66;91.17;97466.25;5048636;28;20045;-64
2021/07/07 01:15:55;;;;;;;6.63;0.65;;;13.50;99.90;;;12.77;90.73;97459.56;5049252;28;20044;-64
2021/07/07 01:18:43;;;;;;;2.65;0.88;;;13.60;99.90;;;12.78;90.36;97460.38;5050639;28;20044;-65
2021/07/07 01:21:33;;;;;;;2.35;0.55;;;13.70;99.90;;;12.74;90.48;97457.09;5049776;28;20501;-64
2021/07/07 01:24:21;;;;;;;1.77;0.60;;;13.70;99.90;;;12.81;90.47;97449.78;5031599;28;20044;-64
2021/07/07 01:27:09;;;;;;;4.78;0.65;;;13.60;99.90;;;12.75;90.62;97439.72;5043648;28;20095;-64
2021/07/07 01:29:58;;;;;;;3.45;0.73;;;13.60;99.90;;;12.70;90.81;97446.91;5042457;28;20489;-64
2021/07/07 01:32:46;;;;;;;2.65;0.50;;;13.60;99.90;;;12.62;91.75;97451.72;5049774;28;20052;-64
2021/07/07 01:35:33;;;;;;;2.78;0.68;;;13.60;99.90;;;12.57;92.10;97464.97;5049810;28;20147;-64
2021/07/07 01:38:21;;;;;;;2.65;0.65;;;13.50;99.90;;;12.61;91.86;97448.25;5042588;28;20037;-64
2021/07/07 01:41:08;;;;;;;4.03;0.80;;;13.40;99.90;;;12.63;91.32;97454.22;5040170;28;20037;-64
2021/07/07 01:43:55;;;;;;;2.85;1.08;;;13.40;99.90;;;12.80;90.98;97461.16;5033522;28;20110;-64
2021/07/07 01:46:43;;;;;;;7.57;0.90;;;13.40;99.90;;;12.76;90.80;97433.56;5044086;28;20473;-64
2021/07/07 01:49:30;;;;;;;3.33;0.60;;;13.40;99.90;;;12.80;90.96;97431.66;5034641;28;20049;-64
2021/07/07 01:52:18;;;;;;;2.45;0.68;;;13.50;99.90;;;12.71;91.38;97433.00;5045640;28;20394;-64
2021/07/07 01:55:07;;;;;;;3.63;0.60;;;13.50;99.90;;;12.80;91.00;97444.69;5049139;28;20041;-64
2021/07/07 01:57:55;;;;;;;2.78;0.63;;;13.50;99.90;;;12.76;91.30;97438.78;5033964;28;20064;-64
2021/07/07 02:00:42;;;;;;;2.85;0.40;;;13.60;99.90;;;12.84;90.51;97434.03;5046189;28;20045;-64
2021/07/07 02:03:30;;;;;;;3.15;0.60;;;13.70;99.90;;;12.85;90.44;97440.91;5047156;28;20085;-64
2021/07/07 02:06:17;;;;;;;4.22;0.50;;;13.70;99.90;;;12.82;90.71;97432.41;5049000;28;20044;-64
2021/07/07 02:09:06;;;;;;;2.20;0.55;;;13.70;99.90;;;12.76;91.13;97446.59;5046665;28;20048;-64
2021/07/07 02:11:53;;;;;;;2.35;0.60;;;13.80;99.90;;;12.60;91.78;97457.00;5047895;28;20049;-64
2021/07/07 02:14:44;;;;;;;4.95;0.77;;;13.70;99.90;;;12.77;91.00;97451.75;5043978;28;20048;-64
2021/07/07 02:17:31;;;;;;;3.53;0.70;;;13.60;99.90;;;12.71;91.65;97446.00;5042483;28;20120;-64
2021/07/07 02:20:20;;;;;;;6.65;0.65;;;13.70;99.90;;;12.61;91.63;97450.84;5048830;28;20056;-64
2021/07/07 02:23:12;;;;;;;2.85;0.82;;;13.60;99.90;;;12.69;91.19;97443.47;5048603;28;20053;-64
2021/07/07 02:25:59;;;;;;;4.68;0.70;;;13.60;99.90;;;12.62;91.81;97452.53;5048543;28;20049;-64
2021/07/07 02:28:46;;;;;;;5.70;0.80;;;13.60;99.90;;;12.80;90.83;97442.09;5041978;28;20068;-64
2021/07/07 02:31:34;;;;;;;5.15;0.70;;;13.60;99.90;;;12.73;90.97;97429.38;5047118;28;20049;-64
2021/07/07 02:34:21;;;;;;;4.55;1.00;;;13.60;99.90;;;12.68;91.16;97447.03;5044225;28;20037;-64
2021/07/07 02:37:08;;;;;;;3.53;0.68;;;13.70;99.90;;;12.73;91.15;97459.78;5051291;28;20091;-64
2021/07/07 02:39:56;;;;;;;2.83;0.50;;;13.60;99.90;;;12.86;90.57;97445.16;5046735;28;20132;-64
2021/07/07 02:42:43;;;;;;;1.50;0.60;;;13.60;99.90;;;12.87;90.57;97449.47;5043729;28;20397;-64
2021/07/07 02:45:32;;;;;;;2.85;0.68;;;13.70;99.90;;;12.85;90.74;97455.69;5044057;28;20099;-64
2021/07/07 02:48:20;;;;;;;3.92;0.60;;;13.70;99.90;;;12.70;90.71;97460.81;5049647;28;20049;-65
2021/07/07 02:51:07;;;;;;;4.03;0.70;;;13.70;99.90;;;12.79;91.10;97462.06;5052735;28;20164;-65
2021/07/07 02:53:54;;;;;;;2.65;0.70;;;13.70;99.90;;;12.96;90.06;97461.16;5046890;28;20049;-64
2021/07/07 02:56:42;;;;;;;4.97;1.00;;;13.80;99.90;;;12.77;90.83;97469.97;5044093;28;20110;-64
2021/07/07 02:59:29;;;;;;;4.40;0.60;;;13.80;99.90;;;12.80;91.06;97475.94;5049761;28;20124;-64
2021/07/07 03:02:16;;;;;;;4.07;0.63;;;13.80;99.90;;;12.78;90.83;97478.63;5050638;28;20037;-64
2021/07/07 03:05:06;;;;;;;6.80;0.75;;;13.80;99.90;;;12.70;91.40;97480.78;5052476;28;20048;-64
2021/07/07 03:07:53;;;;;;;5.10;0.70;;;13.80;99.90;;;12.61;91.46;97487.28;5052381;28;20049;-64
2021/07/07 03:10:43;;;;;;;3.10;0.70;;;13.70;99.90;;;12.45;92.56;97473.41;5051279;28;20048;-64
2021/07/07 03:13:31;;;;;;;6.65;0.80;;;13.60;99.90;;;12.44;92.69;97464.75;5023303;28;20087;-64
2021/07/07 03:16:19;;;;;;;6.82;0.70;;;13.60;99.90;;;12.48;92.40;97470.66;5050983;28;20545;-64
2021/07/07 03:19:06;;;;;;;3.53;0.80;;;13.50;99.90;;;12.44;92.47;97482.16;5048278;28;20067;-64
2021/07/07 03:21:53;;;;;;;3.78;0.60;;;13.50;99.90;;;12.59;91.68;97480.50;5051959;28;20126;-64
2021/07/07 03:24:40;;;;;;;5.03;0.88;;;13.40;99.90;;;12.63;91.26;97469.84;5051194;28;20496;-64
2021/07/07 03:27:27;;;;;;;4.78;0.70;;;13.40;99.90;;;12.63;90.86;97458.59;5052465;28;20068;-64
2021/07/07 03:30:17;;;;;;;3.15;0.60;;;13.40;99.90;;;12.61;91.27;97450.84;5049584;28;20052;-64
2021/07/07 03:33:05;;;;;;;1.00;0.40;;;13.50;99.90;;;12.69;91.21;97453.06;5055347;28;20052;-64
2021/07/07 03:35:53;;;;;;;4.28;0.70;;;13.50;99.90;;;12.74;90.76;97446.66;5049559;28;20250;-64
2021/07/07 03:38:40;;;;;;;3.25;0.70;;;13.50;99.90;;;12.71;90.67;97448.63;5050464;28;20091;-64
2021/07/07 03:41:28;;;;;;;3.00;0.60;;;13.50;99.90;;;12.83;90.08;97463.56;5051679;28;20041;-64
2021/07/07 03:44:15;;;;;;;3.50;0.70;;;13.60;99.90;;;12.82;90.06;97468.84;5045821;28;20386;-64
2021/07/07 03:47:03;;;;;;;2.47;0.40;;;13.50;99.90;;;12.85;89.89;97466.09;5051411;28;20508;-64
2021/07/07 03:49:51;;;;;;;3.35;0.70;;;13.60;99.90;;;12.90;89.79;97467.53;5048964;28;20041;-64
2021/07/07 03:52:38;;;;;;;2.97;0.63;;;13.60;99.90;;;12.90;90.14;97469.31;5052301;28;20049;-65
2021/07/07 03:55:26;;;;;;;3.72;0.73;;;13.70;99.90;;;12.64;90.50;97476.75;5050959;28;20143;-64
2021/07/07 03:58:14;;;;;;;3.60;0.70;;;13.70;99.90;;;12.74;90.45;97477.09;5049664;28;20516;-64
2021/07/07 04:01:03;;;;;;;3.15;0.80;;;13.70;99.90;;;12.88;89.73;97485.00;5049782;28;20053;-64
2021/07/07 04:03:50;;;;;;;3.45;0.70;;;13.70;99.90;;;12.90;89.77;97493.59;5049997;28;20034;-64
2021/07/07 04:06:37;;;;;;;4.45;0.93;;;13.80;99.90;;;12.83;89.98;97507.84;5051830;28;20049;-64
2021/07/07 04:09:28;;;;;;;2.28;0.60;;;13.80;99.90;;;12.90;89.65;97506.59;5049054;28;20048;-64
2021/07/07 04:12:16;;;;;;;3.95;0.65;;;13.80;99.90;;;12.79;90.06;97500.28;5044692;28;20052;-64
2021/07/07 04:15:06;;;;;;;3.40;0.77;;;13.70;99.90;;;12.84;89.86;97498.28;5050989;28;20059;-63
2021/07/07 04:17:53;;;;;;;2.38;0.60;;;13.60;99.90;;;12.76;90.18;97509.09;5032595;28;20040;-64
2021/07/07 04:20:42;;;;;;;3.45;0.73;;;13.50;99.90;;;12.67;90.70;97518.22;5045537;28;20045;-64
2021/07/07 04:23:29;;;;;;;5.47;0.60;;;13.50;99.90;;;12.59;91.75;97512.59;5050289;28;20183;-64
2021/07/07 04:26:16;;;;;;;3.97;0.75;;;13.50;99.90;;;12.59;92.07;97515.22;5050921;28;20056;-65
2021/07/07 04:29:04;;;;;;;2.70;0.75;;;13.50;99.90;;;12.54;92.33;97519.78;5050125;28;20045;-64
2021/07/07 04:31:56;;;;;;;3.28;0.60;;;13.50;99.90;;;12.69;91.52;97523.38;5049782;28;20037;-64
2021/07/07 04:34:46;;;;;;;1.45;0.50;;;13.50;99.90;;;12.85;90.93;97518.22;5047073;28;20067;-64
2021/07/07 04:37:33;;;;;;;5.05;0.80;;;13.60;99.90;;;12.82;90.34;97523.56;5049757;28;20052;-64
2021/07/07 04:40:22;;;;;;;3.08;0.55;;;13.80;99.90;;;12.80;90.66;97526.25;5034664;28;20146;-64
2021/07/07 04:43:10;;;;;;;4.07;0.82;;;13.80;99.90;;;12.93;90.58;97521.22;5048294;28;20087;-64
2021/07/07 04:45:57;;;;;;;2.10;0.63;;;13.80;99.90;;;13.12;90.15;97527.16;5047966;28;20091;-65
2021/07/07 04:48:45;;;;;;;4.40;1.00;;;13.90;99.90;;;13.22;89.53;97534.47;5036708;28;20094;-65
2021/07/07 04:51:32;;;;;;;4.40;0.77;;;14.00;99.90;;;13.43;88.60;97537.72;5042265;28;20049;-64
2021/07/07 04:54:20;;;;;;;4.80;0.70;;;14.20;99.90;;;13.41;88.54;97543.03;5050487;28;20398;-64
2021/07/07 04:57:07;;;;;;;2.25;0.77;;;14.20;99.90;;;13.25;88.91;97548.19;5028887;28;20064;-64
2021/07/07 04:59:55;;;;;;;3.40;0.75;;;14.30;99.90;;;13.21;88.22;97549.28;5048971;28;20045;-64
2021/07/07 05:02:44;;;;;;;2.88;0.68;;;14.20;99.90;;;13.26;87.54;97546.44;5047680;28;20037;-64
2021/07/07 05:05:31;;;;;;;4.57;0.65;;;14.10;99.90;;;13.28;87.61;97550.66;5032055;28;20113;-64
2021/07/07 05:08:24;;;;;;;3.63;0.55;;;14.10;99.90;;;13.25;87.79;97557.75;5046880;28;20481;-64
2021/07/07 05:11:12;;;;;;;5.88;0.85;;;14.10;99.90;;;13.18;88.21;97558.13;5047967;28;20179;-64
2021/07/07 05:14:00;;;;;;;2.17;0.70;;;14.20;99.90;;;13.26;87.73;97547.25;5033096;28;20045;-64
2021/07/07 05:16:47;;;;;;;2.70;0.57;;;14.20;99.90;;;13.28;87.06;97550.66;5049674;28;20459;-64
2021/07/07 05:19:35;;;;;;;3.58;0.60;;;14.30;99.90;;;13.31;87.35;97557.47;5059187;28;20071;-64
2021/07/07 05:22:23;;;;;;;4.55;0.90;;;14.20;99.90;;;13.34;87.17;97557.28;5049097;28;20033;-64
2021/07/07 05:25:11;;;;;;;4.57;0.60;;;14.10;99.90;;;13.33;87.31;97555.63;5051916;28;20044;-64
2021/07/07 05:28:01;;;;;;;2.90;0.65;;;14.10;99.90;;;13.22;88.10;97558.78;5027570;28;20041;-64
2021/07/07 05:30:48;;;;;;;2.38;0.65;;;14.10;99.90;;;13.25;88.47;97556.03;5028123;28;20159;-64
2021/07/07 05:33:39;;;;;;;3.45;0.70;;;14.00;99.90;;;13.08;89.71;97562.13;5032131;28;20051;-64
2021/07/07 05:36:26;;;;;;;5.15;0.88;;;14.10;99.90;;;13.02;90.07;97564.19;5046654;28;20078;-64
2021/07/07 05:39:13;;;;;;;2.15;0.70;;;14.20;99.90;;;13.03;89.88;97568.50;5045984;28;20060;-64
2021/07/07 05:42:18;;;;;;;5.03;0.93;;;14.10;99.90;;;13.12;89.77;97575.84;5027252;28;20084;-64
2021/07/07 05:45:06;;;;;;;6.07;0.70;;;14.10;99.90;;;13.15;88.90;97573.06;5044278;28;20080;-64
2021/07/07 05:47:55;;;;;;;3.85;0.60;;;14.20;99.90;;;13.29;88.72;97570.59;5049251;28;20080;-65
2021/07/07 05:50:44;;;;;;;1.88;0.50;;;14.40;99.90;;;13.57;86.60;97567.34;5025686;28;20044;-64
2021/07/07 05:53:31;;;;;;;4.75;0.82;;;14.50;99.90;;;13.71;85.23;97573.56;5019998;28;20164;-64
2021/07/07 05:56:18;;;;;;;6.20;0.80;;;14.70;99.90;;;13.83;85.35;97574.66;5048041;28;20053;-64
2021/07/07 05:59:06;;;;;;;2.83;0.60;;;14.80;99.90;;;13.88;84.98;97567.41;5048217;28;20366;-64
2021/07/07 06:01:53;;;;;;;2.28;0.60;;;15.00;99.90;;;13.90;85.21;97579.44;5047952;28;20040;-65
2021/07/07 06:04:41;;;;;;;2.63;0.60;;;15.10;99.90;;;14.07;84.05;97575.88;5048088;28;20049;-64
2021/07/07 06:07:29;;;;;;;4.85;0.75;;;15.30;99.90;;;13.96;83.49;97575.66;5045972;28;20095;-64
2021/07/07 06:10:23;;;;;;;1.13;0.40;;;15.40;99.90;;;14.24;83.30;97572.31;5043213;28;20090;-64
2021/07/07 06:13:10;;;;;;;3.63;0.73;;;15.50;99.90;;;14.30;82.26;97578.94;5047123;28;20188;-64
2021/07/07 06:15:58;;;;;;;5.13;1.77;;;15.50;99.90;;;14.43;82.04;97580.75;5048509;28;20487;-64
2021/07/07 06:18:45;;;;;;;8.75;0.70;;;15.60;99.90;;;14.27;81.44;97579.13;5047347;28;20036;-64
2021/07/07 06:21:32;;;;;;;3.78;0.80;;;15.70;99.90;;;14.66;81.51;97578.59;5046787;28;20498;-65
2021/07/07 06:24:20;;;;;;;2.80;0.70;;;15.80;99.90;;;14.92;81.77;97584.06;5042488;28;20048;-64
2021/07/07 06:27:07;;;;;;;4.20;0.73;;;15.90;99.90;;;14.70;81.02;97587.09;5039164;28;20527;-64
2021/07/07 06:29:55;;;;;;;3.88;0.55;;;16.10;99.90;;;14.84;80.85;97587.09;5046439;28;20056;-65
2021/07/07 06:32:45;;;;;;;4.95;0.65;;;16.10;99.90;;;14.91;81.23;97587.59;5050344;28;20090;-65
2021/07/07 06:35:36;;;;;;;3.60;0.50;;;16.20;99.90;;;15.04;80.56;97591.97;5032011;28;20425;-64
2021/07/07 06:38:23;;;;;;;1.73;0.50;;;16.30;99.90;;;15.42;80.15;97591.41;5044777;28;20036;-64
2021/07/07 06:41:10;;;;;;;3.47;0.73;;;16.30;99.90;;;14.93;80.63;97596.19;5047103;28;20049;-64
2021/07/07 06:43:58;;;;;;;2.60;0.60;;;16.30;99.90;;;15.24;80.40;97590.78;5045095;28;20044;-65
2021/07/07 06:46:30;;;;;;;3.33;0.50;;;16.30;99.90;;;15.03;80.58;97594.72;5013862;28;20041;-65
2021/07/07 06:48:58;;;;;;;6.40;0.75;;;16.30;99.90;;;15.21;80.24;97603.19;5028020;28;20053;-65
2021/07/07 06:51:25;;;;;;;3.22;0.60;;;16.40;99.90;;;15.80;79.62;97598.66;5018644;28;20128;-64
2021/07/07 06:53:52;;;;;;;2.58;0.70;;;16.60;99.90;;;15.33;78.65;97607.69;5027529;28;20123;-65
2021/07/07 06:56:19;;;;;;;3.25;0.52;;;16.80;99.90;;;15.55;79.81;97604.56;5047206;28;20057;-64
2021/07/07 06:58:46;;;;;;;2.15;0.80;;;16.80;99.90;;;16.03;78.65;97605.06;5047669;28;20045;-64
2021/07/07 07:01:13;;;;;;;5.70;0.52;;;16.90;99.90;;;15.95;77.74;97607.31;5030577;28;20041;-64
2021/07/07 07:03:40;;;;;;;3.70;0.60;;;17.10;99.90;;;16.02;77.28;97610.41;5042123;28;20048;-65
2021/07/07 07:06:08;;;;;;;6.43;0.70;;;17.10;99.90;;;16.02;77.81;97606.00;5048699;28;20041;-65
2021/07/07 07:08:35;;;;;;;7.70;0.80;;;17.10;99.90;;;15.56;79.06;97611.50;5027282;28;20102;-65
2021/07/07 07:11:03;;;;;;;6.15;0.80;;;17.20;99.90;;;16.39;78.09;97600.13;5047630;28;20076;-65
2021/07/07 07:13:30;;;;;;;2.10;0.60;;;17.30;99.90;;;16.03;77.99;97604.22;5029632;28;20127;-65
2021/07/07 07:15:57;;;;;;;3.00;0.50;;;17.50;99.90;;;16.66;76.33;97605.34;5029676;28;20052;-65
2021/07/07 07:18:24;;;;;;;3.85;0.60;;;17.70;99.90;;;16.46;75.50;97606.66;5029518;28;20060;-65
2021/07/07 07:20:56;;;;;;;3.47;0.82;;;17.90;99.90;;;16.65;77.25;97603.63;5045623;28;20049;-65
2021/07/07 07:23:23;;;;;;;2.05;0.60;;;17.90;99.90;;;16.43;76.37;97605.06;5046509;28;20048;-65
2021/07/07 07:25:50;;;;;;;3.08;0.77;;;17.90;99.90;;;16.81;74.87;97604.34;5063379;28;20052;-65
2021/07/07 07:28:17;;;;;;;3.00;0.70;;;17.90;99.90;;;16.73;74.44;97617.91;5048351;28;20095;-65
2021/07/07 07:30:45;;;;;;;5.50;1.15;;;18.00;99.90;;;17.19;73.49;97608.75;5024666;28;20041;-65
2021/07/07 07:33:12;;;;;;;8.00;1.20;;;18.00;99.90;;;17.05;73.95;97604.44;5043301;28;20127;-65
2021/07/07 07:35:42;;;;;;;5.15;1.05;;;18.00;99.90;;;16.63;75.21;97609.00;5049606;28;20420;-65
2021/07/07 07:38:14;;;;;;;6.55;0.65;;;18.10;99.90;;;16.58;74.93;97613.72;5048552;28;20052;-64
2021/07/07 07:40:43;;;;;;;8.48;0.80;;;18.10;99.90;;;17.05;76.09;97612.31;5032397;28;20408;-65
2021/07/07 07:43:11;;;;;;;4.90;0.70;;;18.10;99.90;;;17.78;74.86;97605.50;5049441;28;20051;-65
2021/07/07 07:45:38;;;;;;;6.22;0.80;;;18.50;99.90;;;18.30;72.96;97596.50;5058639;28;20139;-65
2021/07/07 07:48:06;;;;;;;3.75;0.70;;;19.00;99.90;;;18.20;71.68;97598.13;5032651;28;20408;-65
2021/07/07 07:50:34;;;;;;;6.10;0.90;;;19.30;99.90;;;18.57;71.94;97593.63;5032412;28;20059;-65
2021/07/07 07:53:01;;;;;;;6.82;0.68;;;19.60;99.90;;;18.74;69.68;97596.75;5049736;28;20059;-65
2021/07/07 07:55:28;;;;;;;3.47;0.77;;;19.90;99.90;;;18.75;70.16;97593.19;5033214;28;20409;-65
2021/07/07 07:57:55;;;;;;;5.03;1.02;;;19.80;99.90;;;18.84;70.58;97599.56;5033355;28;20114;-65
2021/07/07 08:00:25;;;;;;;4.47;1.02;;;20.00;99.90;;;18.75;69.36;97603.72;5051052;28;20037;-65
2021/07/07 08:02:54;;;;;;;5.90;0.77;;;20.10;99.90;;;19.09;69.55;97599.38;5051081;28;20114;-65
2021/07/07 08:05:23;;;;;;;3.38;0.65;;;20.20;99.90;;;19.52;68.86;97606.53;5032334;28;20564;-65
2021/07/07 08:07:50;;;;;;;6.25;0.80;;;20.50;99.90;;;19.00;68.39;97600.09;5048297;28;20045;-66
2021/07/07 08:10:21;;;;;;;5.25;0.90;;;20.60;99.90;;;18.25;69.41;97603.06;5047326;28;20398;-65
2021/07/07 08:12:52;;;;;;;4.93;0.73;;;20.30;99.90;;;18.17;70.98;97604.44;5038616;28;20487;-65
2021/07/07 08:15:23;;;;;;;4.25;0.85;;;20.20;99.90;;;18.71;71.47;97600.47;5033395;28;20144;-65
2021/07/07 08:17:50;;;;;;;4.63;0.85;;;20.10;99.90;;;18.76;69.40;97613.25;5032987;28;20095;-65
2021/07/07 08:20:18;;;;;;;5.25;0.80;;;20.40;99.90;;;18.91;71.36;97603.41;5018594;28;20037;-65
2021/07/07 08:22:46;;;;;;;5.05;0.68;;;20.50;99.90;;;19.62;71.77;97617.22;5036572;28;20493;-65
2021/07/07 08:25:16;;;;;;;3.35;0.75;;;20.80;99.90;;;20.44;68.78;97611.53;5053096;28;20110;-65
2021/07/07 08:27:44;;;;;;;3.65;0.70;;;21.30;99.90;;;20.34;66.63;97618.50;5048932;28;20056;-65
2021/07/07 08:30:13;;;;;;;5.93;0.70;;;21.60;99.90;;;20.78;63.04;97614.06;5050379;28;20051;-65
2021/07/07 08:32:40;;;;;;;5.38;0.90;;;22.00;99.90;;;21.09;63.43;97617.56;5034009;28;20053;-65
2021/07/07 08:35:09;;;;;;;4.07;0.70;;;22.10;99.90;;;21.50;63.25;97626.41;5032419;28;20409;-65
2021/07/07 08:37:36;;;;;;;7.18;0.60;;;22.20;99.90;;;21.71;62.53;97629.84;5065317;28;20041;-65
2021/07/07 08:40:06;;;;;;;4.03;0.73;;;22.80;99.90;;;22.62;60.83;97628.88;5049357;28;20037;-65
2021/07/07 08:42:35;;;;;;;4.55;0.80;;;23.30;99.90;;;21.43;59.49;97628.75;5031805;28;20083;-65
2021/07/07 08:45:10;;;;;;;5.75;0.77;;;23.50;99.90;;;20.37;63.03;97636.72;5033395;28;20493;-65
2021/07/07 08:47:40;;;;;;;4.13;0.70;;;23.30;99.90;;;21.65;60.21;97632.19;5049132;28;20047;-65
2021/07/07 08:50:11;;;;;;;4.40;0.75;;;23.00;99.90;;;21.36;58.32;97640.78;5050102;28;20507;-65
2021/07/07 08:52:39;;;;;;;5.15;0.75;;;23.40;99.90;;;21.52;59.05;97635.03;5051273;28;20405;-65
2021/07/07 08:55:10;;;;;;;3.95;0.70;;;23.40;99.90;;;22.22;56.98;97635.16;5027981;28;20562;-65
2021/07/07 08:57:44;;;;;;;6.82;0.73;;;23.20;99.90;;;20.19;61.84;97641.69;5032210;28;20045;-65
2021/07/07 09:00:34;;;;;;;3.75;0.70;;;23.00;99.90;;;20.35;61.83;97651.84;5032106;28;20471;-64
2021/07/07 09:03:04;;;;;;;4.20;0.70;;;22.60;99.90;;;21.45;58.57;97644.47;5044347;28;20049;-65
2021/07/07 09:06:06;;;;;;;2.78;0.50;;;22.50;99.90;;;23.49;55.56;97631.41;5049062;28;20508;-64
2021/07/07 09:08:36;;;;;;;5.50;0.90;;;23.00;99.90;;;23.43;53.93;97634.63;5049565;28;20628;-64
2021/07/07 09:11:34;;;;;;;6.15;0.73;;;23.70;99.90;;;23.37;55.18;97637.84;5013240;28;20049;-65
2021/07/07 09:14:14;;;;;;;6.60;0.90;;;24.10;99.90;;;22.37;53.70;97643.50;5002182;28;20143;-65
2021/07/07 09:17:12;;;;;;;6.65;0.70;;;24.30;99.90;;;22.78;53.12;97642.38;5032206;28;21221;-64
2021/07/07 09:19:41;;;;;;;7.82;1.02;;;24.10;99.90;;;22.72;54.16;97642.97;5053938;28;20060;-64
2021/07/07 09:22:11;;;;;;;6.10;0.60;;;24.00;99.90;;;23.02;53.76;97649.09;5018416;28;20037;-64
2021/07/07 09:24:45;;;;;;;5.15;0.82;;;24.00;99.90;;;23.10;51.90;97638.63;5029498;28;20500;-64
2021/07/07 09:27:15;;;;;;;9.43;0.80;;;23.70;99.90;;;23.83;51.97;97638.81;5030268;28;20098;-64
2021/07/07 09:29:46;;;;;;;5.78;0.70;;;23.90;99.90;;;25.40;49.29;97633.97;5048147;28;20111;-64
2021/07/07 09:32:27;;;;;;;6.43;0.70;;;24.70;99.90;;;25.78;49.79;97635.31;5055375;28;20468;-64
2021/07/07 09:35:04;;;;;;;8.30;0.77;;;24.80;99.90;;;26.33;46.07;97635.84;5047145;28;20044;-64
2021/07/07 09:37:39;;;;;;;4.35;0.80;;;25.10;99.90;;;26.98;44.50;97637.72;5027244;28;20055;-65
2021/07/07 09:40:09;;;;;;;4.30;0.70;;;25.70;99.90;;;27.98;42.92;97643.53;5048849;28;20547;-64
2021/07/07 09:42:38;;;;;;;7.95;0.60;;;26.20;99.90;;;27.16;45.29;97645.53;5049293;28;20075;-65
2021/07/07 09:45:12;;;;;;;3.78;0.60;;;26.70;99.90;;;27.60;43.78;97643.31;5019864;28;20075;-64
2021/07/07 09:47:40;;;;;;;5.03;0.65;;;27.00;99.90;;;25.95;44.01;97643.38;5029111;28;20516;-64
2021/07/07 09:50:09;;;;;;;4.70;0.82;;;26.90;99.90;;;25.98;43.15;97653.69;5050595;28;20123;-65
2021/07/07 09:52:40;;;;;;;4.90;0.80;;;26.00;99.90;;;27.48;41.18;97658.88;5031771;28;20140;-64
2021/07/07 09:55:09;;;;;;;7.22;0.82;;;26.30;99.90;;;24.93;42.28;97656.38;5050233;28;20033;-64
2021/07/07 09:57:46;;;;;;;4.88;0.80;;;27.00;99.90;;;26.95;42.06;97659.38;5030849;28;20041;-64
2021/07/07 10:00:19;;;;;;;4.90;0.88;;;26.80;99.90;;;27.73;39.89;97664.94;5032481;28;20045;-64
2021/07/07 10:02:52;;;;;;;5.35;0.88;;;27.30;99.90;;;28.03;37.51;97659.00;5050222;28;20098;-65
2021/07/07 10:05:21;;;;;;;5.82;0.60;;;27.90;99.90;;;26.86;38.83;97655.88;5031067;28;20493;-65
2021/07/07 10:07:50;;;;;;;5.07;0.80;;;27.80;99.90;;;22.98;42.04;97664.38;5031370;28;20037;-64
2021/07/07 10:10:19;;;;;;;6.03;0.77;;;26.40;98.30;;;22.63;47.11;97670.25;5049604;28;20523;-65
2021/07/07 10:12:47;;;;;;;5.38;0.80;;;25.30;99.90;;;22.68;47.77;97665.38;5049555;28;20412;-64
2021/07/07 10:15:16;;;;;;;7.53;0.90;;;24.50;99.90;;;22.77;47.97;97659.25;5032321;28;20041;-63
2021/07/07 10:17:44;;;;;;;3.80;0.70;;;24.60;99.90;;;22.51;49.00;97661.59;5049190;28;20053;-65
2021/07/07 10:20:13;;;;;;;4.20;0.60;;;24.50;99.90;;;22.62;45.54;97650.88;5031212;28;20093;-63
2021/07/07 10:22:42;;;;;;;7.20;1.13;;;24.30;99.90;;;22.25;45.71;97650.72;5050348;28;20072;-65
2021/07/07 10:25:20;;;;;;;6.07;1.15;;;24.40;99.90;;;22.29;49.01;97650.31;5031415;28;20052;-65
2021/07/07 10:27:47;;;;;;;5.03;1.05;;;24.10;99.90;;;23.47;47.38;97645.75;5031802;28;20053;-65
2021/07/07 10:30:15;;;;;;;4.63;0.75;;;24.00;99.90;;;22.01;46.03;97651.91;5042740;28;20033;-65
2021/07/07 10:33:07;;;;;;;4.78;0.70;;;24.20;99.90;;;22.34;47.57;97652.53;5027898;28;20115;-65
2021/07/07 10:35:35;;;;;;;7.43;0.90;;;24.10;99.90;;;22.38;49.26;97653.94;5033756;28;20485;-65
2021/07/07 10:38:07;;;;;;;6.40;1.02;;;23.90;99.90;;;23.31;51.27;97656.94;5037328;28;20045;-65
2021/07/07 10:40:38;;;;;;;7.20;0.70;;;24.10;99.90;;;23.30;46.90;97656.13;5027815;28;20049;-65
2021/07/07 10:43:06;;;;;;;5.32;0.90;;;24.40;99.90;;;24.22;45.08;97657.13;5047506;28;20295;-65
2021/07/07 10:45:42;;;;;;;5.60;0.63;;;25.20;99.90;;;24.66;41.97;97659.94;5042946;28;20045;-65
2021/07/07 10:48:32;;;;;;;3.38;0.55;;;25.30;99.90;;;25.27;41.25;97654.78;5047991;28;20124;-64
2021/07/07 10:51:29;;;;;;;4.03;0.50;;;25.50;99.90;;;23.53;44.86;97663.72;5021151;28;20488;-63
2021/07/07 10:53:56;;;;;;;7.50;0.95;;;25.20;99.90;;;25.10;46.10;97659.97;5029792;28;20558;-63
2021/07/07 10:56:45;;;;;;;4.65;0.73;;;25.60;99.90;;;25.07;45.26;97652.31;5028229;28;20560;-63
2021/07/07 10:59:46;;;;;;;6.40;0.93;;;26.30;99.90;;;26.60;42.80;97648.06;5013869;28;20545;-66
2021/07/07 11:02:25;;;;;;;8.13;0.82;;;27.00;99.90;;;26.53;39.41;97655.00;5042535;28;20555;-64
2021/07/07 11:04:53;;;;;;;6.82;1.38;;;27.20;99.90;;;24.45;43.09;97656.72;5048696;28;20119;-63
2021/07/07 11:07:27;;;;;;;6.28;0.80;;;26.80;99.90;;;26.20;40.83;97649.59;5047092;28;20497;-63
2021/07/07 11:09:56;;;;;;;4.75;0.68;;;26.80;99.90;;;26.89;42.48;97644.88;5047330;28;20045;-63
2021/07/07 11:12:35;;;;;;;6.00;0.70;;;26.90;99.90;;;25.88;42.33;97651.16;5052053;28;20065;-63
2021/07/07 11:15:06;;;;;;;8.10;0.80;;;26.80;99.90;;;24.63;44.00;97665.53;5050946;28;20041;-63
2021/07/07 11:17:37;;;;;;;7.35;1.17;;;26.30;99.90;;;22.72;50.87;97669.44;5052225;28;20049;-63